Time;durP1;ratioP1;P1;durP2;ratioP2;P2;SDS_P1;SDS_P2;PMS_P1;PMS_P2;Temp;Humidity;BMP_temperature;BMP_pressure;BME280_temperature;BME280_humidity;BME280_pressure;Samples;Min_cycle;Max_cycle;Signal;HPM_P1;HPM_P2
2021/01/20 00:00:47;;;;;;;21.33;9.80;;;90.40;2176.00;;;;;;5094534;28;20483;-63
2021/01/20 00:03:12;;;;;;;13.18;7.50;;;90.40;2176.00;;;;;;5094993;28;20471;-63
2021/01/20 00:05:38;;;;;;;10.15;5.85;;;90.50;2176.00;;;;;;5094770;28;20710;-64
2021/01/20 00:08:04;;;;;;;15.25;7.63;;;90.40;2176.00;;;;;;5095754;28;20325;-62
2021/01/20 00:10:30;;;;;;;13.93;6.97;;;90.50;2176.00;;;;;;5095308;28;20351;-63
2021/01/20 00:12:55;;;;;;;11.27;6.15;;;90.50;2176.00;;;;;;5094856;28;20185;-63
2021/01/20 00:15:23;;;;;;;13.68;6.38;;;90.50;2176.00;;;;;;5095128;28;20062;-64
2021/01/20 00:17:49;;;;;;;10.82;5.82;;;90.50;2176.00;;;;;;5095190;28;20023;-63
2021/01/20 00:20:16;;;;;;;10.15;5.82;;;90.50;2176.00;;;;;;5095000;28;20449;-63
2021/01/20 00:22:42;;;;;;;16.35;8.60;;;90.50;2176.00;;;;;;5094818;28;20032;-62
2021/01/20 00:25:09;;;;;;;19.80;10.70;;;90.40;2176.00;;;;;;5094285;28;20036;-63
2021/01/20 00:27:35;;;;;;;18.92;11.35;;;90.50;2176.00;;;;;;5095086;28;20039;-63
2021/01/20 00:30:04;;;;;;;16.75;8.45;;;90.50;2176.00;;;;;;5095221;28;20024;-63
2021/01/20 00:32:31;;;;;;;15.68;6.93;;;115.20;2176.00;;;;;;5094798;28;20032;-63
2021/01/20 00:34:56;;;;;;;12.45;6.63;;;115.30;2176.00;;;;;;5094241;28;20073;-63
2021/01/20 00:37:22;;;;;;;21.10;10.75;;;115.30;2176.00;;;;;;5094886;28;20035;-63
2021/01/20 00:39:48;;;;;;;35.20;15.85;;;115.30;2176.00;;;;;;5094132;28;20503;-63
2021/01/20 00:42:14;;;;;;;30.08;15.23;;;115.30;2176.00;;;;;;5094753;28;20059;-64
2021/01/20 00:44:41;;;;;;;17.17;9.20;;;115.40;2176.00;;;;;;5094917;28;20121;-63
2021/01/20 00:47:07;;;;;;;11.70;5.85;;;115.30;2176.00;;;;;;5094334;28;20353;-62
2021/01/20 00:49:33;;;;;;;9.35;5.15;;;115.20;2176.00;;;;;;5094160;28;20119;-63
2021/01/20 00:51:58;;;;;;;13.50;7.53;;;115.20;2176.00;;;;;;5094198;28;20099;-64
2021/01/20 00:54:24;;;;;;;18.00;10.05;;;90.50;2176.00;;;;;;5094255;28;20321;-63
2021/01/20 00:56:50;;;;;;;12.82;7.60;;;90.50;2176.00;;;;;;5094443;28;20434;-63
2021/01/20 00:59:15;;;;;;;15.43;8.68;;;115.20;2176.00;;;;;;5094342;28;20035;-63
2021/01/20 01:01:41;;;;;;;18.02;9.02;;;90.50;2176.00;;;;;;5094385;28;20042;-63
2021/01/20 01:04:07;;;;;;;14.85;7.75;;;90.50;2176.00;;;;;;5094446;28;20671;-63
2021/01/20 01:06:33;;;;;;;15.57;7.88;;;90.40;2176.00;;;;;;5094226;28;20502;-63
2021/01/20 01:08:58;;;;;;;9.50;5.32;;;90.40;2176.00;;;;;;5094264;28;20405;-62
2021/01/20 01:11:24;;;;;;;10.50;6.10;;;90.30;2176.00;;;;;;5094151;28;20032;-64
2021/01/20 01:13:50;;;;;;;14.15;6.93;;;90.20;2176.00;;;;;;5097368;28;20024;-63
2021/01/20 01:16:16;;;;;;;11.80;6.20;;;90.30;2176.00;;;;;;5098505;28;20028;-63
2021/01/20 01:18:41;;;;;;;11.45;6.18;;;90.10;2176.00;;;;;;5098442;28;20367;-62
2021/01/20 01:21:07;;;;;;;13.57;6.75;;;90.10;2176.00;;;;;;5097925;28;20054;-63
2021/01/20 01:23:33;;;;;;;11.38;6.38;;;90.00;2176.00;;;;;;5098634;28;20391;-63
2021/01/20 01:25:59;;;;;;;11.70;6.07;;;90.00;2176.00;;;;;;5098158;28;20115;-63
2021/01/20 01:28:25;;;;;;;18.40;8.38;;;89.80;2176.00;;;;;;5097492;28;20110;-62
2021/01/20 01:30:50;;;;;;;24.15;11.18;;;89.70;2176.00;;;;;;5097759;28;20066;-63
2021/01/20 01:33:16;;;;;;;35.47;18.08;;;89.60;2201.60;;;;;;5098065;28;20020;-63
2021/01/20 01:35:42;;;;;;;65.68;30.48;;;64.90;2201.60;;;;;;5097680;28;20039;-63
2021/01/20 01:38:07;;;;;;;20.33;10.55;;;64.90;2201.60;;;;;;5097458;28;20070;-63
2021/01/20 01:40:33;;;;;;;31.65;13.85;;;64.90;2201.60;;;;;;5097296;28;20429;-63
2021/01/20 01:42:59;;;;;;;49.17;20.95;;;64.90;2201.60;;;;;;5097516;28;20322;-62
2021/01/20 01:45:25;;;;;;;34.80;15.43;;;89.60;2201.60;;;;;;5097881;28;20036;-62
2021/01/20 01:47:50;;;;;;;28.48;13.25;;;89.70;2176.00;;;;;;5097882;28;20125;-63
2021/01/20 01:50:16;;;;;;;43.95;24.52;;;89.70;2176.00;;;;;;5097262;28;20039;-63
2021/01/20 01:52:43;;;;;;;28.42;16.10;;;89.70;2176.00;;;;;;5097386;28;20031;-63
2021/01/20 01:55:10;;;;;;;27.80;17.15;;;89.70;2176.00;;;;;;5097066;28;20036;-63
2021/01/20 01:57:37;;;;;;;30.13;17.73;;;90.00;2176.00;;;;;;5096789;28;20032;-62
2021/01/20 02:00:06;;;;;;;20.10;13.02;;;89.90;2176.00;;;;;;5097501;28;20024;-62
2021/01/20 02:02:33;;;;;;;26.35;16.05;;;90.00;2176.00;;;;;;5095744;28;20448;-62
2021/01/20 02:04:59;;;;;;;24.83;15.50;;;90.10;2176.00;;;;;;5096278;28;20063;-62
2021/01/20 02:07:27;;;;;;;20.40;11.85;;;90.20;2176.00;;;;;;5096016;28;20031;-64
2021/01/20 02:09:54;;;;;;;10.25;5.32;;;90.20;2176.00;;;;;;5096657;28;20127;-62
2021/01/20 02:12:22;;;;;;;12.68;7.40;;;90.20;2176.00;;;;;;5097111;28;20118;-63
2021/01/20 02:15:02;;;;;;;9.35;5.43;;;90.10;2176.00;;;;;;5096612;28;20036;-62
2021/01/20 02:17:37;;;;;;;7.88;4.65;;;90.10;2176.00;;;;;;5096437;28;20028;-62
2021/01/20 02:20:34;;;;;;;7.35;4.18;;;90.10;2176.00;;;;;;5096625;28;20035;-63
2021/01/20 02:23:06;;;;;;;9.48;4.82;;;90.20;2176.00;;;;;;5097087;28;20027;-63
2021/01/20 02:25:32;;;;;;;8.00;4.35;;;90.30;2176.00;;;;;;5096420;28;20367;-63
2021/01/20 02:28:15;;;;;;;7.00;4.18;;;90.20;2176.00;;;;;;5096677;28;20035;-63
2021/01/20 02:30:44;;;;;;;7.90;4.32;;;90.20;2176.00;;;;;;5096762;28;20394;-64
2021/01/20 02:33:15;;;;;;;8.77;4.75;;;90.20;2176.00;;;;;;5096714;28;20028;-62
2021/01/20 02:35:41;;;;;;;8.95;5.00;;;90.10;2176.00;;;;;;5096760;28;20115;-62
2021/01/20 02:38:08;;;;;;;8.90;4.85;;;90.10;2176.00;;;;;;5096187;28;20049;-62
2021/01/20 02:40:35;;;;;;;8.80;4.75;;;90.00;2176.00;;;;;;5096484;28;20035;-63
2021/01/20 02:43:01;;;;;;;9.23;5.00;;;89.90;2176.00;;;;;;5096486;28;20534;-62
2021/01/20 02:45:27;;;;;;;10.77;5.25;;;89.90;2176.00;;;;;;5096090;28;20040;-63
2021/01/20 02:47:54;;;;;;;9.38;4.65;;;89.80;2176.00;;;;;;5096289;28;20512;-63
2021/01/20 02:50:20;;;;;;;8.38;4.60;;;89.90;2176.00;;;;;;5096150;28;20038;-62
2021/01/20 02:53:06;;;;;;;8.25;4.45;;;89.90;2176.00;;;;;;5096023;28;20334;-62
2021/01/20 02:55:34;;;;;;;9.57;5.18;;;89.90;2176.00;;;;;;5096524;28;20028;-62
2021/01/20 02:58:13;;;;;;;11.30;5.60;;;89.90;2176.00;;;;;;5095973;28;20024;-62
2021/01/20 03:00:41;;;;;;;9.02;5.30;;;89.90;2176.00;;;;;;5095842;28;20024;-63
2021/01/20 03:03:09;;;;;;;10.52;5.53;;;89.90;2176.00;;;;;;5094688;28;20022;-63
2021/01/20 03:05:37;;;;;;;15.43;7.78;;;89.90;2176.00;;;;;;5098111;28;20056;-63
2021/01/20 03:08:04;;;;;;;15.40;7.43;;;89.90;2176.00;;;;;;5097750;28;20123;-62
2021/01/20 03:10:30;;;;;;;12.35;7.05;;;89.80;2176.00;;;;;;5098234;28;20024;-64
2021/01/20 03:12:56;;;;;;;13.98;6.72;;;89.70;2176.00;;;;;;5098153;28;20093;-63
2021/01/20 03:15:25;;;;;;;12.00;4.80;;;89.60;2201.60;;;;;;5098189;28;20441;-62
2021/01/20 03:17:51;;;;;;;6.72;4.18;;;89.70;2176.00;;;;;;5098351;28;20026;-62
2021/01/20 03:20:17;;;;;;;11.98;6.13;;;89.70;2176.00;;;;;;5098064;28;20024;-63
2021/01/20 03:22:43;;;;;;;9.32;4.90;;;89.70;2176.00;;;;;;5097986;28;20024;-63
2021/01/20 03:25:10;;;;;;;9.35;5.30;;;89.70;2176.00;;;;;;5098125;28;20324;-63
2021/01/20 03:27:36;;;;;;;9.23;4.97;;;89.70;2176.00;;;;;;5097685;28;20020;-64
2021/01/20 03:30:03;;;;;;;8.18;4.43;;;89.90;2176.00;;;;;;5098133;28;20028;-63
2021/01/20 03:32:28;;;;;;;8.82;4.85;;;89.90;2176.00;;;;;;5098133;28;20020;-63
2021/01/20 03:34:54;;;;;;;10.27;5.20;;;89.90;2176.00;;;;;;5094883;28;20099;-64
2021/01/20 03:37:20;;;;;;;8.70;5.03;;;89.90;2176.00;;;;;;5093489;28;20047;-63
2021/01/20 03:39:46;;;;;;;9.85;5.10;;;90.00;2176.00;;;;;;5097729;28;20032;-63
2021/01/20 03:42:11;;;;;;;10.25;5.45;;;89.90;2176.00;;;;;;5097381;28;20024;-61
2021/01/20 03:44:37;;;;;;;8.43;4.78;;;90.00;2176.00;;;;;;5097842;28;20024;-62
2021/01/20 03:47:03;;;;;;;8.07;5.53;;;89.80;2176.00;;;;;;5097901;28;20034;-62
2021/01/20 03:49:28;;;;;;;9.50;5.45;;;89.80;2176.00;;;;;;5097310;28;20055;-63
2021/01/20 03:51:54;;;;;;;9.43;5.53;;;89.80;2176.00;;;;;;5090066;28;20383;-62
2021/01/20 03:54:20;;;;;;;8.52;4.65;;;89.70;2176.00;;;;;;5075330;28;20028;-62
2021/01/20 03:56:46;;;;;;;9.63;5.60;;;89.80;2176.00;;;;;;5074700;28;20036;-63
2021/01/20 03:59:11;;;;;;;10.38;5.72;;;89.70;2176.00;;;;;;5074962;28;20032;-62
2021/01/20 04:01:37;;;;;;;8.82;4.55;;;89.80;2176.00;;;;;;5074375;28;20430;-63
2021/01/20 04:04:03;;;;;;;12.82;6.93;;;89.70;2176.00;;;;;;5073977;28;20031;-62
2021/01/20 04:06:29;;;;;;;12.48;6.13;;;64.90;2201.60;;;;;;5074881;28;20123;-63
2021/01/20 04:08:54;;;;;;;14.43;6.65;;;64.70;2201.60;;;;;;5074727;28;20101;-63
2021/01/20 04:11:21;;;;;;;15.02;5.57;;;64.50;2201.60;;;;;;5074687;28;20031;-63
2021/01/20 04:13:47;;;;;;;15.88;6.00;;;64.30;2201.60;;;;;;5074807;28;20066;-62
2021/01/20 04:16:14;;;;;;;15.57;7.53;;;64.20;2201.60;;;;;;5074428;28;20036;-63
2021/01/20 04:18:40;;;;;;;22.55;10.02;;;64.00;2201.60;;;;;;5074681;28;20047;-63
2021/01/20 04:21:06;;;;;;;16.20;8.68;;;39.30;2201.60;;;;;;5074987;28;20028;-64
2021/01/20 04:23:37;;;;;;;20.10;9.02;;;39.10;2201.60;;;;;;5074455;28;20028;-63
2021/01/20 04:26:09;;;;;;;23.40;11.50;;;39.10;2201.60;;;;;;5074971;28;20059;-64
2021/01/20 04:28:36;;;;;;;17.13;9.85;;;39.00;2201.60;;;;;;5074175;28;20414;-63
2021/01/20 04:31:03;;;;;;;23.52;11.98;;;39.00;2201.60;;;;;;5074177;28;20624;-62
2021/01/20 04:33:30;;;;;;;17.30;9.40;;;39.10;2201.60;;;;;;5074719;28;20025;-63
2021/01/20 04:35:56;;;;;;;22.95;10.02;;;39.00;2201.60;;;;;;5074789;28;20337;-64
2021/01/20 04:38:22;;;;;;;17.10;7.97;;;39.00;2201.60;;;;;;5074656;28;20032;-62
2021/01/20 04:40:52;;;;;;;13.23;7.55;;;39.00;2201.60;;;;;;5074665;28;20526;-62
2021/01/20 04:43:18;;;;;;;15.90;7.60;;;39.00;2201.60;;;;;;5074329;28;20029;-64
2021/01/20 04:45:44;;;;;;;15.35;7.60;;;38.90;2201.60;;;;;;5074401;28;20035;-63
2021/01/20 04:48:11;;;;;;;13.50;7.10;;;38.90;2201.60;;;;;;5076693;28;20066;-63
2021/01/20 04:50:40;;;;;;;9.40;4.88;;;38.80;2201.60;;;;;;5078286;28;20024;-63
2021/01/20 04:53:09;;;;;;;15.13;8.05;;;38.80;2201.60;;;;;;5078232;28;20061;-63
2021/01/20 04:55:38;;;;;;;19.15;8.75;;;38.80;2201.60;;;;;;5078535;28;20029;-63
2021/01/20 04:58:04;;;;;;;15.57;7.93;;;38.80;2201.60;;;;;;5078147;28;20114;-63
2021/01/20 05:00:30;;;;;;;13.40;6.72;;;38.70;2201.60;;;;;;5078544;28;20069;-63
2021/01/20 05:02:58;;;;;;;12.52;6.63;;;38.70;2201.60;;;;;;5078462;28;20077;-64
2021/01/20 05:05:25;;;;;;;10.98;5.95;;;38.50;2201.60;;;;;;5077210;28;20052;-62
2021/01/20 05:07:51;;;;;;;12.25;6.65;;;38.40;2201.60;;;;;;5077777;28;20020;-62
2021/01/20 05:10:17;;;;;;;13.93;6.38;;;13.70;2201.60;;;;;;5077846;28;20429;-62
2021/01/20 05:12:44;;;;;;;12.40;6.05;;;13.60;2201.60;;;;;;5077284;28;20058;-63
2021/01/20 05:15:14;;;;;;;13.55;5.97;;;13.60;2201.60;;;;;;5077451;28;20699;-63
2021/01/20 05:17:56;;;;;;;12.75;6.35;;;13.60;2201.60;;;;;;5077910;28;20028;-63
2021/01/20 05:20:35;;;;;;;13.80;7.75;;;13.50;2201.60;;;;;;5077534;28;20029;-64
2021/01/20 05:23:02;;;;;;;14.00;7.88;;;13.50;2201.60;;;;;;5077867;28;20035;-62
2021/01/20 05:25:36;;;;;;;13.15;6.97;;;13.60;2201.60;;;;;;5077839;28;20147;-64
2021/01/20 05:28:19;;;;;;;14.93;6.57;;;13.70;2201.60;;;;;;5076871;28;20025;-63
2021/01/20 05:30:58;;;;;;;10.73;6.72;;;13.70;2201.60;;;;;;5077436;28;20584;-64
2021/01/20 05:33:27;;;;;;;11.10;6.38;;;38.40;2201.60;;;;;;5077423;28;20031;-63
2021/01/20 05:36:13;;;;;;;13.93;7.57;;;38.40;2201.60;;;;;;5077515;28;20437;-63
2021/01/20 05:38:42;;;;;;;12.65;6.10;;;13.70;2201.60;;;;;;5077828;28;20047;-63
2021/01/20 05:41:37;;;;;;;11.52;6.55;;;13.70;2201.60;;;;;;5077320;28;20025;-63
2021/01/20 05:44:08;;;;;;;10.55;5.90;;;13.70;2201.60;;;;;;5054833;28;20178;-62
2021/01/20 05:46:38;;;;;;;18.15;7.72;;;13.70;2201.60;;;;;;5055086;28;20044;-62
2021/01/20 05:49:05;;;;;;;22.83;10.85;;;13.70;2201.60;;;;;;5054775;28;20033;-62
2021/01/20 05:51:41;;;;;;;10.43;5.88;;;13.50;2201.60;;;;;;5054437;28;20032;-64
2021/01/20 05:54:08;;;;;;;12.82;8.85;;;13.60;2201.60;;;;;;5054515;28;20040;-62
2021/01/20 05:56:35;;;;;;;11.07;4.90;;;13.50;2201.60;;;;;;5054821;28;20032;-64
2021/01/20 05:59:01;;;;;;;11.02;5.93;;;13.30;2201.60;;;;;;5054346;28;20760;-63
2021/01/20 06:01:28;;;;;;;8.80;5.25;;;13.20;2201.60;;;;;;5056702;28;20079;-63
2021/01/20 06:03:54;;;;;;;33.65;18.38;;;13.20;2201.60;;;;;;5054107;28;20029;-62
2021/01/20 06:06:21;;;;;;;13.18;7.38;;;13.20;2201.60;;;;;;5053944;28;20485;-63
2021/01/20 06:08:47;;;;;;;14.88;6.55;;;13.10;2201.60;;;;;;5053824;28;20048;-64
2021/01/20 06:11:13;;;;;;;16.40;10.00;;;13.00;2201.60;;;;;;5054373;28;20170;-62
2021/01/20 06:13:40;;;;;;;16.83;10.27;;;13.00;2201.60;;;;;;5054606;28;20052;-64
2021/01/20 06:16:14;;;;;;;17.23;9.38;;;13.00;2201.60;;;;;;5053779;28;20029;-63
2021/01/20 06:18:48;;;;;;;49.33;27.10;;;12.90;2201.60;;;;;;5054153;28;20163;-63
2021/01/20 06:21:15;;;;;;;22.65;10.48;;;12.90;2201.60;;;;;;5072921;28;20040;-63
2021/01/20 06:23:54;;;;;;;15.20;7.97;;;0.10;2201.60;;;;;;5076573;28;20107;-63
2021/01/20 06:26:23;;;;;;;14.88;6.72;;;0.20;2201.60;;;;;;5076820;28;20075;-62
2021/01/20 06:28:55;;;;;;;12.43;6.38;;;0.30;2201.60;;;;;;5076100;28;20029;-64
2021/01/20 06:31:22;;;;;;;13.55;6.97;;;0.30;2201.60;;;;;;5076290;28;20449;-63
2021/01/20 06:33:48;;;;;;;11.13;6.32;;;0.20;2201.60;;;;;;5076205;28;20035;-63
2021/01/20 06:36:34;;;;;;;116.25;46.65;;;0.20;2201.60;;;;;;5076191;28;20032;-63
2021/01/20 06:39:01;;;;;;;106.13;36.58;;;0.10;2201.60;;;;;;5076728;28;20024;-63
2021/01/20 06:41:40;;;;;;;99.22;37.00;;;0.20;2201.60;;;;;;5076100;28;20079;-63
2021/01/20 06:44:12;;;;;;;172.98;71.38;;;0.20;2201.60;;;;;;5076252;28;20020;-63
2021/01/20 06:46:57;;;;;;;106.85;46.97;;;0.30;2201.60;;;;;;5075733;28;20135;-62
2021/01/20 06:49:27;;;;;;;63.40;36.45;;;0.40;2201.60;;;;;;5076347;28;20063;-63
2021/01/20 06:52:13;;;;;;;35.20;21.75;;;0.60;2201.60;;;;;;5075686;28;20032;-63
2021/01/20 06:54:41;;;;;;;52.10;33.13;;;0.70;2201.60;;;;;;5075859;28;20034;-63
2021/01/20 06:57:38;;;;;;;31.77;20.45;;;0.80;2201.60;;;;;;5075505;28;20020;-63
2021/01/20 07:00:10;;;;;;;28.65;16.90;;;25.60;2201.60;;;;;;5070922;28;20032;-64
2021/01/20 07:02:37;;;;;;;31.63;19.63;;;25.70;2201.60;;;;;;5075710;28;20107;-63
2021/01/20 07:05:04;;;;;;;27.55;18.50;;;25.80;2201.60;;;;;;5074710;28;20041;-63
2021/01/20 07:07:53;;;;;;;22.90;15.27;;;25.90;2201.60;;;;;;5075718;28;20040;-63
2021/01/20 07:10:21;;;;;;;16.33;10.70;;;26.00;2201.60;;;;;;5075280;28;20036;-63
2021/01/20 07:13:11;;;;;;;17.48;9.27;;;26.00;2201.60;;;;;;5075643;28;20052;-63
2021/01/20 07:15:38;;;;;;;30.90;21.27;;;26.20;2201.60;;;;;;5081324;28;20024;-64
2021/01/20 07:18:07;;;;;;;19.38;9.40;;;26.20;2201.60;;;;;;5075570;28;20402;-63
2021/01/20 07:20:33;;;;;;;19.77;11.55;;;26.30;2201.60;;;;;;5075448;28;20058;-63
2021/01/20 07:23:02;;;;;;;25.75;11.68;;;26.40;2201.60;;;;;;5092812;28;20028;-64
2021/01/20 07:25:28;;;;;;;17.77;10.80;;;51.20;2201.60;;;;;;5095765;28;20059;-63
2021/01/20 07:27:54;;;;;;;18.38;12.00;;;51.30;2201.60;;;;;;5085343;28;20070;-63
2021/01/20 07:30:20;;;;;;;20.55;11.00;;;51.70;2150.40;;;;;;5095344;28;20032;-62
2021/01/20 07:32:46;;;;;;;19.92;11.30;;;51.90;2124.80;;;;;;5095308;28;20107;-63
2021/01/20 07:35:27;;;;;;;22.23;13.55;;;52.10;2099.20;;;;;;5095463;28;20467;-63
2021/01/20 07:38:04;;;;;;;21.90;15.07;;;77.00;2073.60;;;;;;5095608;28;20031;-64
2021/01/20 07:40:32;;;;;;;18.08;10.38;;;77.20;2022.40;;;;;;5095329;28;20035;-63
2021/01/20 07:42:59;;;;;;;21.48;12.48;;;77.30;1996.80;;;;;;5089805;28;20036;-63
2021/01/20 07:45:37;;;;;;;13.75;8.85;;;77.60;1971.20;;;;;;5094627;28;20345;-63
2021/01/20 07:48:04;;;;;;;;;;;102.40;1920.00;;;;;;5090136;28;20034;-62
2021/01/20 07:50:40;;;;;;;16.30;10.27;;;102.50;1894.40;;;;;;5085327;28;20583;-63
2021/01/20 07:53:10;;;;;;;17.38;9.93;;;102.50;1894.40;;;;;;5091783;28;20731;-63
2021/01/20 07:55:36;;;;;;;14.23;9.95;;;102.70;1920.00;;;;;;5097576;28;20024;-63
2021/01/20 07:58:02;;;;;;;15.73;9.13;;;102.90;1843.20;;;;;;5097758;28;20028;-64
2021/01/20 08:00:28;;;;;;;16.48;8.90;;;103.10;1817.60;;;;;;5096901;28;20016;-63
2021/01/20 08:02:56;;;;;;;17.67;9.50;;;103.10;1843.20;;;;;;5097156;28;20031;-63
2021/01/20 08:05:30;;;;;;;20.37;10.27;;;103.20;1843.20;;;;;;5097182;28;20501;-64
2021/01/20 08:08:10;;;;;;;23.63;13.82;;;103.30;1843.20;;;;;;5096629;28;20721;-64
2021/01/20 08:10:36;;;;;;;32.35;20.65;;;128.10;1868.80;;;;;;5097074;28;20043;-63
2021/01/20 08:13:04;;;;;;;29.27;17.35;;;128.20;1868.80;;;;;;5097562;28;20031;-64
2021/01/20 08:15:36;;;;;;;26.38;17.33;;;128.20;1868.80;;;;;;5096957;28;20035;-63
2021/01/20 08:18:02;;;;;;;57.35;34.80;;;128.30;1868.80;;;;;;5097533;28;20030;-65
2021/01/20 08:20:32;;;;;;;36.22;19.77;;;128.30;1792.00;;;;;;5086968;28;20353;-64
2021/01/20 08:22:59;;;;;;;32.65;19.00;;;128.30;1792.00;;;;;;5100782;28;20020;-64
2021/01/20 08:25:25;;;;;;;43.40;21.80;;;128.50;1766.40;;;;;;5101585;28;20436;-63
2021/01/20 08:27:51;;;;;;;24.85;13.23;;;128.60;1766.40;;;;;;5095267;28;20047;-63
2021/01/20 08:30:31;;;;;;;15.82;10.10;;;128.70;1766.40;;;;;;5100249;28;20437;-64
2021/01/20 08:32:58;;;;;;;16.10;9.80;;;128.70;1843.20;;;;;;5101583;28;20033;-64
2021/01/20 08:35:38;;;;;;;14.88;9.80;;;128.30;1920.00;;;;;;5100708;28;20435;-63
2021/01/20 08:38:05;;;;;;;14.65;9.30;;;128.30;1920.00;;;;;;5096722;28;20064;-63
2021/01/20 08:40:32;;;;;;;14.55;10.13;;;128.60;1843.20;;;;;;5088897;28;20027;-64
2021/01/20 08:42:58;;;;;;;15.52;11.77;;;128.90;1843.20;;;;;;5087852;28;20418;-64
2021/01/20 08:45:24;;;;;;;16.05;11.38;;;153.70;1817.60;;;;;;5089453;28;20028;-63
2021/01/20 08:47:57;;;;;;;15.20;10.30;;;153.90;1792.00;;;;;;5093524;28;20016;-64
2021/01/20 08:50:45;;;;;;;15.52;11.60;;;154.20;1740.80;;;;;;5100865;28;20032;-64
2021/01/20 08:53:29;;;;;;;15.67;9.60;;;179.20;1715.20;;;;;;5094301;28;20024;-64
2021/01/20 08:55:56;;;;;;;39.25;28.20;;;179.40;1664.00;;;;;;5088907;28;20055;-63
2021/01/20 08:58:32;;;;;;;42.25;29.63;;;179.60;1689.60;;;;;;5088589;28;20028;-63
2021/01/20 09:01:17;;;;;;;23.67;16.60;;;179.80;1664.00;;;;;;5100696;28;20050;-63
2021/01/20 09:03:55;;;;;;;14.63;9.80;;;179.80;1612.80;;;;;;5100444;28;20032;-63
2021/01/20 09:06:21;;;;;;;17.07;9.40;;;179.80;1612.80;;;;;;5100299;28;20044;-63
2021/01/20 09:08:47;;;;;;;20.05;14.23;;;179.70;1664.00;;;;;;5097653;28;20387;-63
2021/01/20 09:11:12;;;;;;;17.85;10.32;;;179.80;1612.80;;;;;;5080021;28;20111;-63
2021/01/20 09:13:38;;;;;;;16.08;9.02;;;180.00;1587.20;;;;;;5080258;28;20333;-63
2021/01/20 09:16:07;;;;;;;21.70;10.90;;;180.00;1561.60;;;;;;5080197;28;20110;-63
2021/01/20 09:18:32;;;;;;;19.55;9.77;;;180.10;1561.60;;;;;;5080130;28;20025;-63
2021/01/20 09:21:00;;;;;;;34.70;16.63;;;204.80;1561.60;;;;;;5080391;28;20025;-62
2021/01/20 09:23:26;;;;;;;26.10;12.38;;;205.00;1510.40;;;;;;5088069;28;20321;-63
2021/01/20 09:25:53;;;;;;;29.80;11.82;;;205.00;1536.00;;;;;;5087856;28;20516;-63
2021/01/20 09:28:20;;;;;;;29.63;13.88;;;205.20;1484.80;;;;;;5081937;28;20034;-63
2021/01/20 09:30:47;;;;;;;24.92;11.55;;;205.20;1459.20;;;;;;5079356;28;20029;-64
2021/01/20 09:33:13;;;;;;;24.88;12.15;;;205.30;1484.80;;;;;;5079204;28;20112;-64
2021/01/20 09:35:39;;;;;;;23.67;12.40;;;205.70;1484.80;;;;;;5080083;28;20051;-64
2021/01/20 09:38:06;;;;;;;25.75;13.85;;;205.70;1484.80;;;;;;5079489;28;20082;-64
2021/01/20 09:40:33;;;;;;;30.77;20.83;;;230.40;1459.20;;;;;;5079747;28;20119;-64
2021/01/20 09:42:59;;;;;;;29.88;14.65;;;230.70;1459.20;;;;;;5079718;28;20047;-64
2021/01/20 09:45:27;;;;;;;17.42;11.20;;;230.90;1433.60;;;;;;5084824;28;20032;-64
2021/01/20 09:48:02;;;;;;;17.02;11.88;;;230.70;1459.20;;;;;;5089423;28;20356;-64
2021/01/20 09:50:34;;;;;;;19.55;12.82;;;230.80;1433.60;;;;;;5088287;28;20111;-64
2021/01/20 09:53:04;;;;;;;23.00;12.13;;;231.10;1433.60;;;;;;5088611;28;20467;-63
2021/01/20 09:55:31;;;;;;;25.40;14.98;;;231.30;1408.00;;;;;;5088055;28;20123;-65
2021/01/20 09:57:57;;;;;;;32.15;20.35;;;256.00;1382.40;;;;;;5099563;28;20080;-64
2021/01/20 10:00:23;;;;;;;24.85;14.38;;;256.10;1382.40;;;;;;5099311;28;20023;-64
2021/01/20 10:02:49;;;;;;;58.92;30.10;;;256.00;1408.00;;;;;;5099328;28;20405;-64
2021/01/20 10:05:15;;;;;;;62.92;33.60;;;231.30;1408.00;;;;;;5091022;28;20050;-64
2021/01/20 10:07:42;;;;;;;32.22;18.88;;;256.30;1408.00;;;;;;5098433;28;20028;-64
2021/01/20 10:10:10;;;;;;;46.40;38.33;;;256.30;1382.40;;;;;;5096828;28;20047;-64
2021/01/20 10:12:40;;;;;;;22.33;15.30;;;256.30;1382.40;;;;;;5089768;28;20027;-64
2021/01/20 10:15:07;;;;;;;24.48;15.23;;;231.30;1408.00;;;;;;5095917;28;20429;-65
2021/01/20 10:17:34;;;;;;;23.45;14.07;;;256.10;1408.00;;;;;;5096416;28;20413;-65
2021/01/20 10:20:00;;;;;;;19.67;12.60;;;256.10;1382.40;;;;;;5096007;28;20020;-65
2021/01/20 10:22:26;;;;;;;38.67;15.60;;;256.00;1382.40;;;;;;5096612;28;20024;-65
2021/01/20 10:24:52;;;;;;;30.42;13.88;;;231.30;1408.00;;;;;;5096837;28;20315;-64
2021/01/20 10:27:17;;;;;;;21.73;12.77;;;256.00;1408.00;;;;;;5098093;28;20034;-65
2021/01/20 10:29:43;;;;;;;25.05;12.80;;;256.10;1382.40;;;;;;5098139;28;20012;-65
2021/01/20 10:32:09;;;;;;;20.70;11.95;;;256.00;1408.00;;;;;;5097362;28;20028;-64
2021/01/20 10:34:35;;;;;;;21.38;12.50;;;256.20;1408.00;;;;;;5097803;28;20475;-64
2021/01/20 10:37:01;;;;;;;20.48;12.45;;;256.30;1382.40;;;;;;5097817;28;20081;-64
2021/01/20 10:39:27;;;;;;;16.80;11.38;;;256.10;1382.40;;;;;;5098356;28;20028;-65
2021/01/20 10:41:53;;;;;;;19.75;12.43;;;256.30;1331.20;;;;;;5098792;28;20062;-65
2021/01/20 10:44:19;;;;;;;19.90;11.02;;;256.20;1356.80;;;;;;5097535;28;20379;-64
2021/01/20 10:46:47;;;;;;;22.77;11.57;;;231.30;1382.40;;;;;;5097577;28;20325;-65
2021/01/20 10:49:13;;;;;;;18.33;10.57;;;256.00;1382.40;;;;;;5098116;28;20028;-65
2021/01/20 10:51:39;;;;;;;16.90;11.07;;;231.00;1433.60;;;;;;5097476;28;20375;-65
2021/01/20 10:54:06;;;;;;;17.23;11.48;;;230.60;1484.80;;;;;;5096917;28;20028;-65
2021/01/20 10:56:32;;;;;;;27.30;11.13;;;230.70;1484.80;;;;;;5094297;28;20036;-65
2021/01/20 10:58:58;;;;;;;17.73;11.13;;;230.70;1484.80;;;;;;5093536;28;20077;-65
2021/01/20 11:01:24;;;;;;;18.65;11.63;;;230.60;1484.80;;;;;;5095851;28;20028;-65
2021/01/20 11:03:50;;;;;;;19.70;12.38;;;230.60;1484.80;;;;;;5092021;28;20082;-65
2021/01/20 11:06:16;;;;;;;16.20;10.98;;;230.50;1536.00;;;;;;5090767;28;20043;-66
2021/01/20 11:08:42;;;;;;;23.48;14.57;;;230.70;1536.00;;;;;;5088207;28;20035;-66
2021/01/20 11:11:10;;;;;;;228.85;97.40;;;230.70;1536.00;;;;;;5086719;28;20025;-66
2021/01/20 11:13:36;;;;;;;41.72;19.30;;;230.80;1510.40;;;;;;5088327;28;20016;-66
2021/01/20 11:16:02;;;;;;;73.20;36.60;;;230.90;1510.40;;;;;;5086242;28;20115;-66
2021/01/20 11:18:31;;;;;;;62.75;31.55;;;231.10;1459.20;;;;;;5087989;28;20103;-65
2021/01/20 11:20:58;;;;;;;41.22;24.05;;;231.20;1459.20;;;;;;5085266;28;20409;-66
2021/01/20 11:23:27;;;;;;;24.75;14.52;;;231.30;1459.20;;;;;;5087380;28;20336;-65
2021/01/20 11:25:53;;;;;;;20.50;12.77;;;256.00;1459.20;;;;;;5086438;28;20085;-65
2021/01/20 11:28:20;;;;;;;20.38;11.85;;;256.40;1459.20;;;;;;5085796;28;20410;-67
2021/01/20 11:30:46;;;;;;;25.65;13.85;;;256.50;1433.60;;;;;;5086934;28;20020;-65
2021/01/20 11:33:12;;;;;;;17.80;12.25;;;256.70;1408.00;;;;;;5087565;28;20024;-66
2021/01/20 11:35:39;;;;;;;17.20;10.95;;;256.90;1408.00;;;;;;5085144;28;20062;-65
2021/01/20 11:38:05;;;;;;;18.08;10.68;;;256.90;1408.00;;;;;;5087363;28;20023;-66
2021/01/20 11:40:33;;;;;;;16.10;10.65;;;256.80;1408.00;;;;;;5087261;28;20042;-66
2021/01/20 11:42:59;;;;;;;28.88;17.33;;;256.80;1408.00;;;;;;5096755;28;20024;-66
2021/01/20 11:45:29;;;;;;;16.92;10.45;;;256.60;1433.60;;;;;;5095664;28;20031;-66
2021/01/20 11:47:55;;;;;;;18.40;11.35;;;256.20;1484.80;;;;;;5096776;28;20028;-65
2021/01/20 11:50:21;;;;;;;22.50;17.95;;;231.30;1484.80;;;;;;5096528;28;20028;-67
2021/01/20 11:52:48;;;;;;;19.38;14.15;;;231.10;1510.40;;;;;;5097062;28;20020;-67
2021/01/20 11:55:14;;;;;;;20.77;13.85;;;231.00;1536.00;;;;;;5096364;28;20032;-65
2021/01/20 11:57:41;;;;;;;19.90;13.93;;;230.80;1561.60;;;;;;5096059;28;20105;-66
2021/01/20 12:00:10;;;;;;;17.85;12.05;;;230.60;1536.00;;;;;;5095728;28;20031;-65
2021/01/20 12:02:37;;;;;;;24.73;15.45;;;230.60;1561.60;;;;;;5096928;28;20035;-65
2021/01/20 12:05:05;;;;;;;18.75;11.23;;;230.50;1587.20;;;;;;5096733;28;20052;-65
2021/01/20 12:07:32;;;;;;;16.38;10.80;;;230.50;1587.20;;;;;;5096869;28;20442;-66
2021/01/20 12:09:58;;;;;;;15.88;11.00;;;230.60;1561.60;;;;;;5096682;28;20102;-67
2021/01/20 12:12:23;;;;;;;19.40;11.40;;;230.60;1587.20;;;;;;5086547;28;20047;-66
2021/01/20 12:14:49;;;;;;;16.92;10.45;;;230.60;1587.20;;;;;;5088844;28;20016;-66
2021/01/20 12:17:15;;;;;;;15.70;9.90;;;230.70;1587.20;;;;;;5086669;28;20020;-66